• Join FlightAware (Why Join?)
  • Login
  • US Flag 
06:15PM EDT


 

Airport Tracker/Info


-or-


 

Live Flight TrackerFlight Track Log ✈ VH-HWU ✈ 01-Feb-2014 ✈ YSBK / BWU - YORG / OAG

Flight Track Log - Related Links

Times and Time Zones

All times are in EST time to prevent confusion due to time zone crossing. See the VH-HWU flight status page for this flight to view local times or setup timezone preferences in your user account.

Time Position Orientation Groundspeed Altitude Reporting Facility
EST Latitude Longitude Course Direction KTS MPH feet Rate Location/Type
10:07PM -33.9244 151.0197 318° Northwest 115 132 900  Level Aus ATC (RADAR)
10:08PM -33.9134 151.0080 318° Northwest 123 142 1,200 900 Climbing Aus ATC (RADAR)
10:08PM -33.9029 150.9849 299° West 127 146 1,800 840 Climbing Aus ATC (RADAR)
10:09PM -33.8851 150.9510 302° West 125 144 2,500 720 Climbing Aus ATC (RADAR)
10:09PM -33.8770 150.9353 302° West 127 146 2,800 480 Climbing Aus ATC (RADAR)
10:10PM -33.8669 150.9109 296° West 134 154 3,000 120 Climbing Aus ATC (RADAR)
10:11PM -33.8618 150.8729 279° West 147 169 3,000 60 Level Aus ATC (RADAR)
10:11PM -33.8541 150.8443 288° West 151 174 3,100 600 Climbing Aus ATC (RADAR)
10:12PM -33.8429 150.8129 293° West 131 151 3,800 720 Climbing Aus ATC (RADAR)
10:13PM -33.8393 150.7948 283° West 128 147 4,000 600 Climbing Aus ATC (RADAR)
10:13PM -33.8333 150.7699 286° West 128 147 4,400 540 Climbing Aus ATC (RADAR)
10:14PM -33.8189 150.7214 290° West 127 146 5,000 480 Climbing Aus ATC (RADAR)
10:15PM -33.8137 150.7039 290° West 128 147 5,200 540 Climbing Aus ATC (RADAR)
10:15PM -33.8065 150.6755 287° West 127 146 5,600 660 Climbing Aus ATC (RADAR)
10:16PM -33.7976 150.6396 287° West 130 150 6,200 660 Climbing Aus ATC (RADAR)
10:17PM -33.7913 150.6145 287° West 129 148 6,600 600 Climbing Aus ATC (RADAR)
10:18PM -33.7822 150.5821 289° West 130 150 7,000 600 Climbing Aus ATC (RADAR)
10:18PM -33.7776 150.5633 286° West 134 154 7,300 660 Climbing Aus ATC (RADAR)
10:19PM -33.7687 150.5223 285° West 133 153 7,900 600 Climbing Aus ATC (RADAR)
10:19PM -33.7646 150.5035 285° West 134 154 8,100 120 Climbing Aus ATC (RADAR)
10:20PM -33.7595 150.4831 287° West 145 167 8,000 -120 Descending Aus ATC (RADAR)
10:20PM -33.7521 150.4525 286° West 156 180 8,000  Level Aus ATC (RADAR)
10:21PM -33.7421 150.4141 287° West 156 180 8,000  Level Aus ATC (RADAR)
10:22PM -33.7353 150.3830 285° West 157 181 8,000  Level Aus ATC (RADAR)
10:22PM -33.7297 150.3568 284° West 158 182 8,000 -120 Level Aus ATC (RADAR)
10:23PM -33.7220 150.3268 287° West 159 183 7,900 -120 Descending Aus ATC (RADAR)
10:23PM -33.7145 150.2967 287° West 157 181 7,900 60 Level Aus ATC (RADAR)
10:24PM -33.7007 150.2460 288° West 155 178 8,000  Climbing Aus ATC (RADAR)
10:25PM -33.6950 150.2250 288° West 155 178 7,900 -120 Descending Aus ATC (RADAR)
10:25PM -33.6867 150.1954 288° West 156 180 7,900  Level Aus ATC (RADAR)
10:26PM -33.6779 150.1612 287° West 157 181 7,900  Level Aus ATC (RADAR)
10:27PM -33.6704 150.1316 287° West 156 180 7,900  Level Aus ATC (RADAR)
10:27PM -33.6623 150.1021 288° West 156 180 7,900  Level Aus ATC (RADAR)
10:28PM -33.6554 150.0768 288° West 155 178 7,900  Level Aus ATC (RADAR)
10:28PM -33.6469 150.0472 289° West 158 182 7,900  Level Aus ATC (RADAR)
10:29PM -33.6350 150.0007 287° West 157 181 7,900  Level Aus ATC (RADAR)
10:30PM -33.6281 149.9801 292° West 157 181 7,900 60 Level Aus ATC (RADAR)
10:30PM -33.6203 149.9550 290° West 157 181 8,000  Climbing Aus ATC (RADAR)
10:31PM -33.6122 149.9255 288° West 156 180 7,900  Descending Aus ATC (RADAR)
10:31PM -33.6022 149.8925 290° West 155 178 8,000 120 Climbing Aus ATC (RADAR)
10:32PM -33.5899 149.8658 299° West 154 177 8,100  Climbing Aus ATC (RADAR)
10:32PM -33.5811 149.8369 290° West 155 178 8,000 -120 Descending Aus ATC (RADAR)
10:33PM -33.5721 149.8020 287° West 162 186 8,000 -120 Level Aus ATC (RADAR)
10:34PM -33.5651 149.7758 288° West 161 185 7,900  Descending Aus ATC (RADAR)
10:34PM -33.5573 149.7333 282° West 154 177 8,000  Climbing Aus ATC (RADAR)
10:35PM -33.5523 149.7118 286° West 157 181 7,900 -120 Descending Aus ATC (RADAR)
10:35PM -33.5450 149.6815 286° West 160 184 7,900 -120 Level Aus ATC (RADAR)
10:36PM -33.5409 149.6413 277° West 161 185 7,800  Descending Aus ATC (RADAR)
10:37PM -33.5388 149.6100 274° West 157 181 7,900 120 Climbing Aus ATC (RADAR)
10:37PM -33.5366 149.5801 275° West 153 176 8,000  Climbing Aus ATC (RADAR)
10:38PM -33.5325 149.5501 279° West 154 177 7,900  Descending Aus ATC (RADAR)
10:39PM -33.5320 149.5193 271° West 155 178 8,000 60 Climbing Aus ATC (RADAR)
10:40PM -33.5288 149.4678 274° West 154 177 8,000  Level Aus ATC (RADAR)
10:40PM -33.5221 149.4473 291° West 155 178 8,000 60 Level Aus ATC (RADAR)
10:41PM -33.5078 149.4207 303° West 158 182 8,100  Climbing Aus ATC (RADAR)
10:41PM -33.4950 149.3809 291° West 169 194 8,000  Descending Aus ATC (RADAR)
10:42PM -33.4841 149.3533 295° West 154 177 8,100 -240 Climbing Aus ATC (RADAR)
10:42PM -33.4718 149.3307 303° West 158 182 7,800 -420 Descending Aus ATC (RADAR)
10:43PM -33.4579 149.3029 301° West 164 189 7,700 -540 Descending Aus ATC (RADAR)
10:44PM -33.4454 149.2736 297° West 167 192 7,200 -600 Descending Aus ATC (RADAR)
10:45PM -33.4250 149.2262 297° West 161 185 6,800 -480 Descending Aus ATC (RADAR)
10:45PM -33.4154 149.2058 299° West 165 190 6,600 -540 Descending Aus ATC (RADAR)
10:46PM -33.4048 149.1769 294° West 161 185 6,300 -480 Descending Aus ATC (RADAR)
10:46PM -33.3901 149.1394 295° West 162 186 6,000 -300 Descending Aus ATC (RADAR)
10:47PM -33.3804 149.1129 294° West 146 168 5,900 -120 Descending Aus ATC (RADAR)
10:47PM -33.3755 149.1029 300° West 141 162 5,900  Level Aus ATC (RADAR)
10:48PM -33.3440 149.1242 29° Northeast 137 158 5,900 60 Level Aus ATC (RADAR)
10:49PM -33.3265 149.1407 38° Northeast 139 160 6,000  Climbing Aus ATC (RADAR)
10:49PM -33.3401 149.1669 122° Southeast 113 130 5,900 -120 Descending Aus ATC (RADAR)
10:50PM -33.3545 149.1508 223° Southwest 156 180 5,900 -120 Level Aus ATC (RADAR)
10:50PM -33.3733 149.1365 212° Southwest 138 159 5,800 -120 Descending Aus ATC (RADAR)
10:51PM -33.3905 149.1164 224° Southwest 132 152 5,800 120 Level Aus ATC (RADAR)
10:52PM -33.4062 149.1012 219° Southwest 124 143 6,000 -360 Climbing Aus ATC (RADAR)
10:52PM -33.4241 149.0882 211° Southwest 126 145 5,400 -780 Descending Aus ATC (RADAR)
10:53PM -33.4377 149.0759 217° Southwest 125 144 5,200 -420 Descending Aus ATC (RADAR)